< Typhoon 198403 1984 Season Typhoon 198405 >
Typhoon 198404 (BETTY)
General InformationTrack Information on Google MapsDetailed Wind InformationList of All Images || Disaster Info.ResourceGoogle EarthGE AnimationAtom FeedGeoJSON
Detalied Best Track (Time Zone = UTC)
Year Month Day Hour Lat. Long. Pressure (hPa) Wind (kt) Class Image Chart
1984 7 4 00 11.5 129.0 1008 0 2 Image Chart
1984 7 4 06 12.0 128.0 1006 0 2 Image Chart
1984 7 4 12 12.5 127.0 1008 0 2 Image Chart
1984 7 4 18 13.0 126.5 1006 0 2 Image Chart
1984 7 5 00 13.5 125.5 1006 0 2 Image Chart
1984 7 5 06 14.0 124.5 1004 0 2 Image Chart
1984 7 5 12 15.0 123.5 1004 0 2 Image Chart
1984 7 5 18 15.5 122.5 1004 0 2 Image Chart
1984 7 6 00 16.0 121.5 1004 0 2 Image Chart
1984 7 6 06 16.5 120.0 1002 0 2 Image Chart
1984 7 6 12 16.5 119.0 1002 0 2 Image Chart
1984 7 6 18 17.0 118.5 1000 0 2 Image Chart
1984 7 7 00 17.5 118.0 1000 0 2 Image Chart
1984 7 7 06 17.8 117.5 998 0 2 Image Chart
1984 7 7 12 18.2 117.0 996 0 2 Image Chart
1984 7 7 18 18.5 116.3 994 0 2 Image Chart
1984 7 8 00 19.0 115.5 992 45 3 Image Chart
1984 7 8 06 19.4 114.8 992 45 3 Image Chart
1984 7 8 12 20.0 114.0 990 45 3 Image Chart
1984 7 8 18 20.7 112.8 990 45 3 Image Chart
1984 7 9 00 21.3 112.2 985 50 4 Image Chart
1984 7 9 06 22.0 111.0 985 50 4 Image Chart
1984 7 9 12 22.7 109.8 994 35 3 Image Chart
1984 7 9 18 22.9 107.5 998 0 2 Image Chart
1984 7 10 00 23.2 105.2 998 0 2 Image Chart
1984 7 10 06 24.0 103.0 998 0 2 Image Chart
1984 7 10 12 24.5 101.5 1000 0 2 Image Chart
1984 7 10 18 25.0 100.0 1000 0 6 Image Chart
Japan Meteorological Agency Best Track Data | Correction Date : 1992-10-21
< Typhoon 198403 1984 Season Typhoon 198405 >

Help